Time;durP1;ratioP1;P1;durP2;ratioP2;P2;SDS_P1;SDS_P2;PMS_P1;PMS_P2;Temp;Humidity;BMP_temperature;BMP_pressure;BME280_temperature;BME280_humidity;BME280_pressure;Samples;Min_cycle;Max_cycle;Signal;HPM_P1;HPM_P2
2022/01/27 00:01:39;;;;;;;1.10;1.00;;;0.90;98.00;;;;;;5113795;28;20486;-68
2022/01/27 00:04:13;;;;;;;2.13;1.97;;;0.90;98.00;;;;;;5113411;28;21012;-67
2022/01/27 00:06:41;;;;;;;1.10;1.00;;;1.00;98.00;;;;;;5113685;28;20896;-67
2022/01/27 00:09:18;;;;;;;1.60;1.50;;;1.00;98.00;;;;;;5113472;28;20454;-68
2022/01/27 00:11:48;;;;;;;1.67;1.57;;;1.00;98.00;;;;;;5113568;28;20525;-67
2022/01/27 00:14:19;;;;;;;1.10;1.10;;;0.90;98.00;;;;;;5095356;28;20486;-68
2022/01/27 00:16:59;;;;;;;1.10;1.00;;;1.00;98.00;;;;;;5113455;28;20482;-68
2022/01/27 00:19:26;;;;;;;1.70;1.70;;;0.80;98.00;;;;;;5095374;28;20468;-67
2022/01/27 00:21:53;;;;;;;1.30;1.30;;;0.80;98.00;;;;;;5113330;28;20457;-67
2022/01/27 00:24:22;;;;;;;1.30;1.30;;;0.80;98.00;;;;;;5113230;28;20461;-69
2022/01/27 00:26:49;;;;;;;1.47;1.40;;;0.90;98.00;;;;;;5113564;28;20470;-67
2022/01/27 00:29:16;;;;;;;1.63;1.53;;;0.80;98.00;;;;;;5094678;28;20490;-66
2022/01/27 00:31:44;;;;;;;1.10;1.00;;;0.80;98.00;;;;;;5095139;28;20491;-66
2022/01/27 00:34:11;;;;;;;4.60;3.27;;;0.80;98.00;;;;;;5112631;28;20485;-68
2022/01/27 00:36:38;;;;;;;1.10;1.10;;;0.80;98.00;;;;;;5112799;28;20518;-67
2022/01/27 00:39:05;;;;;;;1.10;1.10;;;0.80;98.00;;;;;;5094701;28;20498;-68
2022/01/27 00:41:33;;;;;;;1.70;1.53;;;0.80;98.00;;;;;;5094530;28;20497;-67
2022/01/27 00:44:02;;;;;;;1.10;1.10;;;0.80;98.00;;;;;;5112530;28;20499;-67
2022/01/27 00:46:32;;;;;;;1.10;1.00;;;0.90;98.00;;;;;;5112678;28;20548;-66
2022/01/27 00:48:59;;;;;;;1.70;1.60;;;0.90;98.00;;;;;;5112636;28;20798;-67
2022/01/27 00:51:30;;;;;;;1.70;1.20;;;1.00;98.00;;;;;;5112404;28;20470;-66
2022/01/27 00:54:04;;;;;;;1.70;1.33;;;1.10;98.00;;;;;;5112620;28;20462;-67
2022/01/27 00:56:41;;;;;;;1.40;1.40;;;1.00;98.00;;;;;;5112497;28;20513;-68
2022/01/27 00:59:25;;;;;;;1.40;1.30;;;1.10;98.00;;;;;;5112300;28;20510;-69
2022/01/27 01:02:00;;;;;;;1.93;1.83;;;1.00;98.00;;;;;;5096838;28;20545;-66
2022/01/27 01:04:32;;;;;;;1.20;1.20;;;1.00;98.00;;;;;;5112350;28;20454;-67
2022/01/27 01:06:59;;;;;;;1.37;1.30;;;1.10;98.00;;;;;;5112537;28;20450;-67
2022/01/27 01:12:59;;;;;;;2.57;1.90;;;1.00;98.00;;;;;;5112470;28;20481;-66
2022/01/27 01:15:16;;;;;;;1.20;1.20;;;1.10;98.00;;;;;;5112282;28;21025;-68
2022/01/27 01:20:56;;;;;;;2.43;1.77;;;1.10;98.00;;;;;;5103370;28;20446;-67
2022/01/27 01:31:52;;;;;;;1.30;1.30;;;1.00;98.00;;;;;;5111985;28;20442;-67
2022/01/27 01:34:21;;;;;;;1.20;1.20;;;0.90;98.00;;;;;;5094964;28;20541;-68
2022/01/27 01:36:57;;;;;;;2.43;2.10;;;0.90;98.00;;;;;;5111206;28;20482;-68
2022/01/27 01:39:27;;;;;;;1.10;1.00;;;0.90;98.00;;;;;;5112036;28;20460;-67
2022/01/27 01:41:55;;;;;;;1.10;1.10;;;1.00;98.00;;;;;;5112174;28;20882;-68
2022/01/27 01:44:24;;;;;;;3.00;2.20;;;1.10;98.00;;;;;;5111703;28;20515;-67
2022/01/27 01:47:01;;;;;;;4.37;1.60;;;1.00;98.00;;;;;;5112203;28;20536;-67
2022/01/27 01:49:29;;;;;;;2.03;1.30;;;1.00;98.00;;;;;;5112333;28;20870;-66
2022/01/27 01:51:57;;;;;;;1.47;1.20;;;1.00;98.00;;;;;;5112385;28;20454;-67
2022/01/27 01:54:25;;;;;;;1.10;1.03;;;0.90;98.00;;;;;;5115789;28;20497;-66
2022/01/27 01:56:52;;;;;;;1.50;1.50;;;0.90;98.00;;;;;;5115733;28;20520;-68
2022/01/27 01:59:20;;;;;;;1.50;1.40;;;0.90;98.00;;;;;;5115761;28;20510;-67
2022/01/27 02:01:48;;;;;;;1.20;1.10;;;0.90;98.00;;;;;;5115895;28;20548;-67
2022/01/27 02:04:16;;;;;;;6.67;1.93;;;0.80;98.00;;;;;;5115767;28;20500;-67
2022/01/27 02:06:49;;;;;;;1.10;1.00;;;0.80;98.00;;;;;;5098053;28;20486;-68
2022/01/27 02:09:26;;;;;;;2.43;2.23;;;0.80;98.00;;;;;;5115654;28;20459;-67
2022/01/27 02:20:12;;;;;;;2.07;1.93;;;0.90;98.00;;;;;;5115565;28;20453;-67
2022/01/27 02:22:39;;;;;;;4.57;1.97;;;0.90;98.00;;;;;;5115384;28;20500;-66
2022/01/27 02:25:07;;;;;;;13.13;2.50;;;0.90;98.00;;;;;;5115612;28;20495;-68
2022/01/27 02:27:36;;;;;;;2.37;2.17;;;0.80;98.00;;;;;;5115201;28;20492;-67
2022/01/27 02:30:06;;;;;;;1.57;1.47;;;0.80;98.00;;;;;;5115431;28;20486;-67
2022/01/27 02:32:33;;;;;;;1.43;1.33;;;0.90;98.00;;;;;;5115311;28;20514;-66
2022/01/27 02:35:03;;;;;;;1.30;1.20;;;1.00;98.00;;;;;;5115402;28;20871;-67
2022/01/27 02:37:31;;;;;;;1.40;1.30;;;1.10;98.00;;;;;;5114931;28;20542;-67
2022/01/27 02:39:58;;;;;;;1.80;1.63;;;1.20;98.00;;;;;;5115172;28;20504;-67
2022/01/27 02:42:30;;;;;;;1.33;1.30;;;1.20;98.00;;;;;;5115249;28;20487;-67
2022/01/27 02:45:04;;;;;;;2.80;2.60;;;1.20;98.00;;;;;;5115005;28;20461;-68
2022/01/27 02:47:32;;;;;;;1.83;1.73;;;1.20;98.00;;;;;;5115047;28;20454;-66
2022/01/27 02:49:59;;;;;;;1.40;1.37;;;1.20;98.00;;;;;;5114908;28;20501;-67
2022/01/27 02:52:26;;;;;;;2.30;1.93;;;1.10;98.00;;;;;;5096954;28;20542;-67
2022/01/27 02:54:54;;;;;;;1.83;1.73;;;1.00;98.00;;;;;;5114894;28;20486;-68
2022/01/27 02:57:21;;;;;;;1.60;1.50;;;1.00;98.00;;;;;;5115032;28;20482;-66
2022/01/27 02:59:48;;;;;;;1.63;1.53;;;1.10;98.00;;;;;;5114831;28;20514;-66
2022/01/27 03:02:16;;;;;;;1.60;1.50;;;1.00;98.00;;;;;;5114868;28;20454;-66
2022/01/27 03:04:43;;;;;;;1.40;1.30;;;0.90;98.00;;;;;;5113487;28;20551;-68
2022/01/27 03:07:10;;;;;;;1.10;1.10;;;1.00;98.00;;;;;;5114828;28;20454;-67
2022/01/27 03:09:38;;;;;;;1.40;1.20;;;1.00;98.00;;;;;;5114630;28;20501;-68
2022/01/27 03:12:10;;;;;;;2.47;1.47;;;1.20;98.00;;;;;;5115008;28;20494;-68
2022/01/27 03:14:39;;;;;;;1.40;1.23;;;1.30;98.00;;;;;;5114891;28;20461;-67
2022/01/27 03:17:07;;;;;;;4.63;2.40;;;1.20;98.00;;;;;;5096708;28;21144;-67
2022/01/27 03:19:35;;;;;;;2.67;2.47;;;1.20;98.00;;;;;;5115004;28;20453;-67
2022/01/27 03:22:03;;;;;;;1.60;1.50;;;1.30;98.00;;;;;;5114674;28;20461;-67
2022/01/27 03:24:30;;;;;;;1.10;1.00;;;1.30;98.00;;;;;;5114138;28;20879;-67
2022/01/27 03:26:59;;;;;;;2.80;1.63;;;1.20;98.00;;;;;;5114180;28;20449;-66
2022/01/27 03:29:28;;;;;;;1.77;1.70;;;1.20;98.00;;;;;;5114263;28;20870;-67
2022/01/27 03:31:56;;;;;;;1.70;1.67;;;1.10;98.00;;;;;;5113854;28;20473;-67
2022/01/27 03:34:23;;;;;;;2.13;1.70;;;1.20;98.00;;;;;;5114088;28;20453;-67
2022/01/27 03:36:50;;;;;;;1.57;1.47;;;1.10;98.00;;;;;;5096005;28;21013;-67
2022/01/27 03:39:20;;;;;;;1.43;1.43;;;1.20;98.00;;;;;;5113914;28;20460;-66
2022/01/27 03:41:50;;;;;;;1.47;1.43;;;1.20;98.00;;;;;;5096096;28;20454;-66
2022/01/27 03:44:17;;;;;;;1.30;1.20;;;1.10;98.00;;;;;;5114073;28;20460;-67
2022/01/27 03:46:46;;;;;;;1.10;1.10;;;1.20;98.00;;;;;;5113930;28;20453;-68
2022/01/27 03:49:13;;;;;;;1.57;1.50;;;1.20;98.00;;;;;;5095623;28;20498;-67
2022/01/27 03:51:40;;;;;;;3.40;2.40;;;1.00;98.00;;;;;;5095792;28;20494;-67
2022/01/27 03:54:07;;;;;;;1.10;1.00;;;1.00;98.00;;;;;;5113529;28;20450;-68
2022/01/27 03:56:34;;;;;;;3.50;3.30;;;0.90;98.00;;;;;;5113553;28;20554;-66
2022/01/27 03:59:02;;;;;;;1.90;1.50;;;1.00;98.00;;;;;;5113729;28;20533;-67
2022/01/27 04:01:30;;;;;;;1.10;1.10;;;1.00;98.00;;;;;;5113663;28;20958;-66
2022/01/27 04:03:59;;;;;;;2.07;1.93;;;1.10;98.00;;;;;;5113301;28;20472;-67
2022/01/27 04:06:33;;;;;;;1.50;1.40;;;1.10;98.00;;;;;;5113494;28;20450;-68
2022/01/27 04:09:01;;;;;;;1.67;1.60;;;1.00;98.00;;;;;;5113363;28;20536;-66
2022/01/27 04:11:32;;;;;;;1.10;1.00;;;1.00;98.00;;;;;;5113517;28;20994;-68
2022/01/27 04:13:59;;;;;;;2.67;2.50;;;1.20;98.00;;;;;;5113332;28;21013;-66
2022/01/27 04:16:26;;;;;;;1.10;1.10;;;1.10;98.00;;;;;;5112936;28;20517;-66
2022/01/27 04:18:53;;;;;;;1.40;1.30;;;1.00;98.00;;;;;;5113330;28;20454;-67
2022/01/27 04:21:22;;;;;;;1.40;1.30;;;0.90;98.00;;;;;;5113426;28;20516;-66
2022/01/27 04:23:50;;;;;;;1.60;1.50;;;0.80;98.00;;;;;;5113361;28;20497;-68
2022/01/27 04:26:21;;;;;;;1.10;1.10;;;0.90;98.00;;;;;;5095217;28;20820;-66
2022/01/27 04:28:50;;;;;;;1.60;1.50;;;1.00;98.00;;;;;;5113042;28;20473;-68
2022/01/27 04:31:17;;;;;;;1.60;1.50;;;0.90;98.00;;;;;;5113161;28;20975;-67
2022/01/27 04:33:44;;;;;;;1.80;1.70;;;1.00;98.00;;;;;;5113139;28;20522;-66
2022/01/27 04:36:18;;;;;;;1.93;1.73;;;1.10;98.00;;;;;;5112809;28;20518;-67
2022/01/27 04:38:53;;;;;;;1.10;1.00;;;1.10;98.00;;;;;;5096067;28;20490;-68
2022/01/27 04:41:26;;;;;;;2.23;2.03;;;1.10;98.00;;;;;;5094882;28;20457;-67
2022/01/27 04:44:00;;;;;;;1.10;1.07;;;1.30;98.00;;;;;;5112793;28;20482;-67
2022/01/27 04:46:34;;;;;;;1.77;1.30;;;1.30;98.00;;;;;;5112992;28;20822;-66
2022/01/27 04:49:04;;;;;;;1.83;1.47;;;1.40;98.00;;;;;;5095574;28;20462;-67
2022/01/27 04:51:31;;;;;;;2.20;1.73;;;1.30;98.00;;;;;;5112253;28;20461;-67
2022/01/27 04:54:05;;;;;;;1.60;1.43;;;1.30;98.00;;;;;;5112472;28;20966;-66
2022/01/27 04:56:33;;;;;;;2.50;2.30;;;1.40;98.00;;;;;;5112529;28;20501;-66
2022/01/27 04:59:05;;;;;;;1.10;1.10;;;1.40;98.00;;;;;;5094488;28;20983;-67
2022/01/27 05:01:37;;;;;;;1.40;1.30;;;1.40;98.00;;;;;;5112505;28;20465;-67
2022/01/27 05:04:09;;;;;;;1.87;1.77;;;1.30;98.00;;;;;;5094785;28;21015;-67
2022/01/27 05:06:36;;;;;;;1.30;1.20;;;1.30;98.00;;;;;;5112420;28;20478;-67
2022/01/27 05:09:05;;;;;;;2.80;2.17;;;1.30;98.00;;;;;;5112315;28;20479;-68
2022/01/27 05:11:35;;;;;;;2.13;1.10;;;1.30;98.00;;;;;;5112443;28;20975;-67
2022/01/27 05:14:09;;;;;;;1.10;1.10;;;1.10;98.00;;;;;;5112162;28;20454;-67
2022/01/27 05:16:36;;;;;;;1.97;1.80;;;0.90;98.00;;;;;;5112190;28;21076;-66
2022/01/27 05:19:04;;;;;;;1.70;1.20;;;1.00;98.00;;;;;;5094409;28;20458;-67
2022/01/27 05:21:32;;;;;;;1.10;1.03;;;1.00;98.00;;;;;;5094402;28;20928;-67
2022/01/27 05:24:00;;;;;;;4.63;2.20;;;0.90;98.00;;;;;;5112130;28;20529;-67
2022/01/27 05:26:35;;;;;;;2.63;1.53;;;1.00;98.00;;;;;;5094002;28;20497;-68
2022/01/27 05:29:03;;;;;;;2.00;1.80;;;1.10;98.00;;;;;;5111807;28;20461;-67
2022/01/27 05:31:30;;;;;;;1.37;1.27;;;1.00;98.00;;;;;;5112097;28;20995;-67
2022/01/27 05:33:57;;;;;;;1.77;1.67;;;0.90;98.00;;;;;;5111999;28;20478;-67
2022/01/27 05:36:24;;;;;;;3.87;3.03;;;0.90;98.00;;;;;;5112180;28;20510;-67
2022/01/27 05:38:52;;;;;;;6.20;2.80;;;0.90;98.00;;;;;;5112180;28;20494;-67
2022/01/27 05:41:19;;;;;;;1.27;1.20;;;0.80;98.00;;;;;;5112205;28;20484;-66
2022/01/27 05:43:47;;;;;;;1.20;1.20;;;0.70;98.00;;;;;;5112093;28;20488;-68
2022/01/27 05:46:14;;;;;;;1.27;1.23;;;0.70;98.00;;;;;;5077343;28;20489;-66
2022/01/27 05:48:42;;;;;;;1.40;1.30;;;0.80;98.00;;;;;;5111872;28;20945;-67
2022/01/27 05:51:12;;;;;;;3.90;3.70;;;0.90;98.00;;;;;;5093788;28;20985;-68
2022/01/27 05:53:40;;;;;;;1.10;0.97;;;1.00;98.00;;;;;;5112009;28;20465;-68
2022/01/27 05:56:07;;;;;;;1.17;1.13;;;0.90;98.00;;;;;;5094108;28;20947;-68
2022/01/27 05:58:34;;;;;;;1.73;1.67;;;0.90;98.00;;;;;;5111983;28;20570;-67
2022/01/27 06:01:02;;;;;;;1.10;1.00;;;0.90;98.00;;;;;;5112184;28;20537;-66
2022/01/27 06:03:29;;;;;;;1.43;1.33;;;0.90;98.00;;;;;;5112141;28;20540;-67
2022/01/27 06:05:56;;;;;;;2.07;1.93;;;1.00;98.00;;;;;;5093930;28;21188;-67
2022/01/27 06:08:25;;;;;;;1.63;1.37;;;1.00;98.00;;;;;;5111586;28;20498;-68
2022/01/27 06:10:52;;;;;;;2.47;2.27;;;1.10;98.00;;;;;;5111664;28;20549;-67
2022/01/27 06:13:19;;;;;;;2.47;1.90;;;1.00;98.00;;;;;;5111527;28;20541;-67
2022/01/27 06:15:46;;;;;;;2.27;1.57;;;1.00;98.00;;;;;;5111747;28;20485;-66
2022/01/27 06:18:15;;;;;;;1.50;1.23;;;0.80;98.00;;;;;;5093419;28;20492;-66
2022/01/27 06:20:44;;;;;;;1.33;1.30;;;0.80;98.00;;;;;;5111253;28;20486;-67
2022/01/27 06:23:12;;;;;;;1.30;1.20;;;1.00;98.00;;;;;;5093102;28;20480;-67
2022/01/27 06:25:41;;;;;;;1.33;1.27;;;0.90;98.00;;;;;;5093155;28;20878;-68
2022/01/27 06:28:08;;;;;;;1.77;1.70;;;0.90;98.00;;;;;;5093590;28;20967;-66
2022/01/27 06:30:35;;;;;;;1.27;1.23;;;1.00;98.00;;;;;;5093555;28;20483;-67
2022/01/27 06:33:03;;;;;;;1.53;1.47;;;0.90;98.00;;;;;;5111516;28;20466;-67
2022/01/27 06:35:32;;;;;;;1.80;1.63;;;0.90;98.00;;;;;;5111521;28;20481;-67
2022/01/27 06:38:00;;;;;;;1.83;1.73;;;0.80;98.00;;;;;;5111350;28;20525;-67
2022/01/27 06:40:27;;;;;;;2.37;2.17;;;0.80;98.00;;;;;;5115247;28;20484;-67
2022/01/27 06:42:54;;;;;;;1.30;1.30;;;0.90;98.00;;;;;;5115178;28;20496;-67
2022/01/27 06:45:21;;;;;;;1.10;1.00;;;0.90;98.00;;;;;;5115031;28;20460;-67
2022/01/27 06:47:49;;;;;;;6.83;2.10;;;0.90;98.00;;;;;;5115214;28;20484;-68
2022/01/27 06:50:16;;;;;;;1.93;1.83;;;1.00;98.00;;;;;;5096734;28;20554;-67
2022/01/27 06:52:47;;;;;;;5.67;2.90;;;1.00;98.00;;;;;;5115070;28;20544;-68
2022/01/27 06:55:17;;;;;;;2.23;1.47;;;1.20;98.00;;;;;;5112864;28;20491;-67
2022/01/27 06:57:46;;;;;;;1.30;1.20;;;1.10;98.00;;;;;;5114993;28;20888;-68
2022/01/27 07:00:14;;;;;;;1.17;1.10;;;0.90;98.00;;;;;;5114811;28;20999;-67
2022/01/27 07:02:41;;;;;;;2.40;2.20;;;0.80;98.00;;;;;;5114627;28;20484;-67
2022/01/27 07:05:13;;;;;;;2.67;1.60;;;0.80;98.00;;;;;;5114530;28;20951;-67
2022/01/27 07:07:40;;;;;;;3.03;1.90;;;0.80;98.00;;;;;;5114790;28;20948;-67
2022/01/27 07:10:10;;;;;;;1.10;1.00;;;0.80;98.00;;;;;;5096552;28;20816;-68
2022/01/27 07:12:40;;;;;;;1.47;1.43;;;0.80;98.00;;;;;;5096399;28;20544;-66
2022/01/27 07:15:09;;;;;;;2.07;1.93;;;0.80;98.00;;;;;;5114449;28;20456;-68
2022/01/27 07:17:36;;;;;;;4.20;2.47;;;0.90;98.00;;;;;;5114346;28;20477;-67
2022/01/27 07:20:03;;;;;;;3.30;3.20;;;0.90;98.00;;;;;;5114840;28;20451;-66
2022/01/27 07:22:32;;;;;;;1.10;1.00;;;1.00;98.00;;;;;;5096470;28;20456;-67
2022/01/27 07:25:02;;;;;;;1.40;1.30;;;0.90;98.00;;;;;;5114623;28;20790;-68
2022/01/27 07:27:32;;;;;;;1.60;1.60;;;0.80;98.00;;;;;;5080004;28;20462;-67
2022/01/27 07:29:59;;;;;;;1.93;1.87;;;0.80;98.00;;;;;;5114376;28;20809;-67
2022/01/27 07:32:26;;;;;;;1.77;1.77;;;0.70;98.00;;;;;;5114749;28;20492;-67
2022/01/27 07:34:53;;;;;;;3.30;1.50;;;0.90;98.00;;;;;;5114521;28;21404;-66
2022/01/27 07:37:20;;;;;;;2.60;2.20;;;0.90;98.00;;;;;;5114270;28;20518;-67
2022/01/27 07:39:47;;;;;;;1.10;1.00;;;1.00;98.00;;;;;;5113819;28;20496;-67
2022/01/27 07:42:14;;;;;;;2.13;2.00;;;1.00;98.00;;;;;;5114061;28;20453;-67
2022/01/27 07:44:43;;;;;;;7.03;1.60;;;1.10;98.00;;;;;;5095781;28;20454;-67
2022/01/27 07:47:10;;;;;;;7.65;3.25;;;1.20;98.00;;;;;;5113770;28;20502;-67
2022/01/27 07:49:37;;;;;;;1.50;1.43;;;1.20;98.00;;;;;;5094479;28;20206;-67
2022/01/27 07:52:04;;;;;;;1.50;1.40;;;1.10;98.00;;;;;;5113515;28;20456;-68
2022/01/27 07:54:31;;;;;;;6.27;2.40;;;1.20;98.00;;;;;;5113669;28;20864;-68
2022/01/27 07:57:01;;;;;;;1.25;1.23;;;1.10;98.00;;;;;;5113654;28;20963;-67
2022/01/27 07:59:28;;;;;;;2.43;2.23;;;1.00;98.00;;;;;;5113103;28;20289;-67
2022/01/27 08:01:58;;;;;;;2.15;1.83;;;1.10;98.00;;;;;;5113473;28;20491;-67
2022/01/27 08:04:26;;;;;;;1.10;1.00;;;1.10;98.00;;;;;;5113359;28;20626;-66
2022/01/27 08:06:54;;;;;;;1.20;1.20;;;1.10;98.00;;;;;;5113421;28;20484;-69
2022/01/27 08:09:21;;;;;;;1.10;1.00;;;1.10;98.00;;;;;;5113301;28;20499;-68
2022/01/27 08:11:48;;;;;;;4.13;2.67;;;1.00;98.00;;;;;;5095181;28;20241;-67
2022/01/27 08:14:15;;;;;;;1.85;1.75;;;1.00;98.00;;;;;;5113344;28;20492;-67
2022/01/27 08:16:42;;;;;;;2.30;2.17;;;0.90;98.00;;;;;;5112907;28;20610;-67
2022/01/27 08:19:10;;;;;;;2.33;2.13;;;0.90;98.00;;;;;;5113007;28;20571;-68
2022/01/27 08:21:39;;;;;;;1.70;1.60;;;1.00;98.00;;;;;;5113175;28;20497;-68
2022/01/27 08:24:07;;;;;;;1.47;1.47;;;0.90;98.00;;;;;;5113312;28;20481;-67
2022/01/27 08:26:38;;;;;;;2.30;2.10;;;0.80;98.00;;;;;;5095000;28;20453;-67
2022/01/27 08:29:11;;;;;;;3.40;2.20;;;0.80;98.00;;;;;;5113065;28;20562;-67
2022/01/27 08:31:54;;;;;;;1.17;1.10;;;0.90;98.00;;;;;;5113260;28;20510;-71
2022/01/27 08:34:30;;;;;;;1.75;1.65;;;0.80;98.00;;;;;;5113082;28;20455;-67
2022/01/27 08:36:57;;;;;;;5.33;2.47;;;0.50;98.00;;;;;;5112890;28;20223;-66
2022/01/27 08:39:27;;;;;;;1.30;1.25;;;0.40;98.00;;;;;;5112757;28;20515;-68
2022/01/27 08:41:54;;;;;;;1.20;1.13;;;0.40;98.00;;;;;;5101808;28;20205;-66
2022/01/27 08:44:22;;;;;;;1.30;1.20;;;0.40;98.00;;;;;;5110204;28;20448;-65
2022/01/27 08:46:50;;;;;;;1.10;1.00;;;0.40;98.00;;;;;;5109979;28;20556;-67
2022/01/27 08:49:19;;;;;;;1.10;1.00;;;0.40;98.00;;;;;;5090264;28;20459;-67
2022/01/27 08:51:47;;;;;;;3.93;2.80;;;0.30;98.00;;;;;;5109649;28;20946;-66
2022/01/27 08:54:14;;;;;;;2.45;2.25;;;0.20;98.00;;;;;;5109768;28;20522;-67
2022/01/27 08:56:42;;;;;;;1.10;1.00;;;0.30;98.00;;;;;;5075143;28;20206;-67
2022/01/27 08:59:09;;;;;;;3.43;2.07;;;0.20;98.00;;;;;;5109675;28;20575;-68
2022/01/27 09:01:37;;;;;;;1.10;1.10;;;0.00;98.00;;;;;;5109529;28;20539;-67
2022/01/27 09:04:05;;;;;;;2.10;1.97;;;0.00;98.00;;;;;;5109805;28;20198;-69
2022/01/27 09:06:32;;;;;;;2.93;2.77;;;0.00;98.00;;;;;;5109534;28;21000;-68
2022/01/27 09:09:01;;;;;;;3.10;2.00;;;0.00;98.00;;;;;;5109790;28;20543;-66
2022/01/27 09:11:31;;;;;;;2.28;2.08;;;0.10;98.00;;;;;;5109629;28;20496;-68
2022/01/27 09:13:58;;;;;;;1.20;1.10;;;0.10;98.00;;;;;;5091783;28;20200;-67
2022/01/27 09:16:28;;;;;;;1.27;1.25;;;0.10;98.00;;;;;;5109656;28;20210;-67
2022/01/27 09:18:56;;;;;;;1.92;1.88;;;0.00;98.00;;;;;;5109584;28;20235;-69
2022/01/27 09:21:27;;;;;;;2.05;1.42;;;0.00;98.00;;;;;;5109443;28;20197;-68
2022/01/27 09:23:57;;;;;;;1.10;1.10;;;0.10;98.00;;;;;;5109278;28;20596;-67
2022/01/27 09:26:42;;;;;;;2.97;2.10;;;0.00;98.00;;;;;;5109291;28;20202;-67
2022/01/27 09:29:09;;;;;;;1.30;1.25;;;-0.10;98.00;;;;;;5093480;28;20452;-66
2022/01/27 09:31:37;;;;;;;1.65;1.58;;;-0.10;98.00;;;;;;5109246;28;20292;-67
2022/01/27 09:34:04;;;;;;;1.10;1.00;;;-0.10;98.00;;;;;;5108854;28;20236;-68
2022/01/27 09:36:31;;;;;;;1.50;1.43;;;0.10;98.00;;;;;;5109167;28;20448;-69
2022/01/27 09:38:58;;;;;;;1.10;1.00;;;0.20;98.00;;;;;;5109365;28;20595;-67
2022/01/27 09:41:28;;;;;;;1.20;1.20;;;0.50;98.00;;;;;;5109275;28;20245;-66
2022/01/27 09:43:56;;;;;;;1.10;1.00;;;0.70;98.00;;;;;;5091486;28;20459;-69
2022/01/27 09:46:25;;;;;;;2.20;1.90;;;0.70;98.00;;;;;;5109386;28;20460;-67
2022/01/27 09:48:54;;;;;;;1.20;1.20;;;0.80;98.00;;;;;;5109282;28;20457;-68
2022/01/27 09:51:37;;;;;;;1.83;1.50;;;0.90;98.00;;;;;;5107392;28;20553;-67
2022/01/27 09:54:04;;;;;;;1.63;1.43;;;0.90;98.00;;;;;;5093371;28;20456;-67
2022/01/27 09:56:32;;;;;;;3.23;2.33;;;1.10;98.00;;;;;;5109569;28;20458;-68
2022/01/27 09:58:59;;;;;;;1.27;1.23;;;1.10;98.00;;;;;;5109147;28;20525;-67
2022/01/27 10:01:26;;;;;;;1.80;1.50;;;1.00;98.00;;;;;;5109225;28;20882;-67
2022/01/27 10:03:55;;;;;;;1.17;1.00;;;0.90;98.00;;;;;;5109189;28;20450;-68
2022/01/27 10:06:27;;;;;;;1.50;1.40;;;1.00;98.00;;;;;;5109318;28;20548;-67
2022/01/27 10:09:12;;;;;;;1.70;1.60;;;1.00;98.00;;;;;;5109330;28;20457;-68
2022/01/27 10:11:42;;;;;;;1.50;1.40;;;1.20;98.00;;;;;;5109132;28;21021;-66
2022/01/27 10:14:24;;;;;;;1.10;1.10;;;1.40;98.00;;;;;;5110896;28;20481;-66
2022/01/27 10:16:54;;;;;;;1.63;1.53;;;1.50;98.00;;;;;;5112729;28;20456;-67
2022/01/27 10:19:22;;;;;;;1.67;1.60;;;1.60;98.00;;;;;;5078069;28;20481;-69
2022/01/27 10:21:50;;;;;;;2.33;2.20;;;1.70;98.00;;;;;;5113167;28;20466;-68
2022/01/27 10:24:25;;;;;;;1.60;1.50;;;1.70;98.00;;;;;;5112790;28;20460;-67
2022/01/27 10:27:19;;;;;;;1.47;1.23;;;1.80;98.00;;;;;;5112686;28;20455;-67
2022/01/27 10:30:03;;;;;;;3.43;1.80;;;1.80;98.00;;;;;;5115122;28;20469;-67
2022/01/27 10:32:41;;;;;;;1.20;1.17;;;1.80;98.00;;;;;;5115335;28;20492;-67
2022/01/27 10:35:10;;;;;;;1.87;1.77;;;1.80;98.00;;;;;;5096703;28;20508;-67
2022/01/27 10:38:02;;;;;;;1.10;1.03;;;1.80;98.00;;;;;;5115220;28;20489;-67
2022/01/27 10:40:31;;;;;;;2.17;1.60;;;1.80;98.00;;;;;;5115087;28;20458;-67
2022/01/27 10:43:13;;;;;;;2.07;1.53;;;1.80;98.00;;;;;;5115296;28;20488;-67
2022/01/27 10:45:57;;;;;;;1.53;1.30;;;1.90;98.00;;;;;;5115140;28;20514;-67
2022/01/27 10:48:27;;;;;;;1.10;1.03;;;1.90;98.00;;;;;;5115135;28;20485;-67
2022/01/27 10:51:01;;;;;;;2.23;2.03;;;1.90;98.00;;;;;;5114306;28;21014;-68
2022/01/27 10:53:51;;;;;;;1.50;1.40;;;1.80;98.00;;;;;;5114236;28;20476;-68
2022/01/27 10:56:21;;;;;;;1.97;1.80;;;1.80;98.00;;;;;;5114203;28;20820;-67
2022/01/27 10:58:50;;;;;;;1.10;1.10;;;1.80;98.00;;;;;;5114054;28;20492;-67
2022/01/27 11:01:25;;;;;;;1.70;1.67;;;1.70;98.00;;;;;;5114386;28;20511;-66
2022/01/27 11:03:54;;;;;;;1.33;1.30;;;1.70;98.00;;;;;;5114218;28;20846;-67
2022/01/27 11:06:25;;;;;;;1.87;1.60;;;1.70;98.00;;;;;;5102668;28;20462;-68
2022/01/27 11:08:55;;;;;;;1.37;1.30;;;1.70;98.00;;;;;;5112097;28;21053;-70
2022/01/27 11:11:24;;;;;;;1.70;1.60;;;1.70;98.00;;;;;;5111971;28;20457;-66
2022/01/27 11:13:55;;;;;;;1.10;1.00;;;1.70;98.00;;;;;;5111755;28;20556;-66
2022/01/27 11:16:28;;;;;;;1.50;1.40;;;1.80;98.00;;;;;;5093622;28;20466;-67
2022/01/27 11:19:11;;;;;;;7.70;2.40;;;1.80;98.00;;;;;;5111672;28;20930;-67
2022/01/27 11:21:40;;;;;;;2.47;1.47;;;1.80;98.00;;;;;;5111766;28;20492;-67
2022/01/27 11:24:17;;;;;;;2.57;2.37;;;1.80;98.00;;;;;;5110973;28;20490;-66
2022/01/27 11:26:46;;;;;;;1.30;1.30;;;1.80;98.00;;;;;;5110267;28;20474;-66
2022/01/27 11:29:17;;;;;;;1.40;1.20;;;1.80;98.00;;;;;;5110908;28;20537;-66
2022/01/27 11:31:58;;;;;;;1.40;1.30;;;1.80;98.00;;;;;;5111541;28;20458;-68
2022/01/27 11:34:44;;;;;;;3.13;2.67;;;1.90;98.00;;;;;;5111455;28;20500;-68
2022/01/27 11:37:16;;;;;;;1.50;1.40;;;1.90;98.00;;;;;;5112896;28;20966;-67
2022/01/27 11:39:54;;;;;;;1.70;1.60;;;1.90;98.00;;;;;;5111976;28;21141;-66
2022/01/27 11:42:41;;;;;;;3.07;2.37;;;2.10;98.00;;;;;;5111374;28;21133;-67
2022/01/27 11:45:30;;;;;;;3.20;3.00;;;2.10;98.00;;;;;;5111361;28;20494;-67
2022/01/27 11:48:01;;;;;;;2.60;1.83;;;2.10;98.00;;;;;;5111102;28;20457;-66
2022/01/27 11:50:35;;;;;;;1.30;1.27;;;2.00;98.00;;;;;;5108083;28;20469;-66
2022/01/27 11:53:03;;;;;;;1.40;1.30;;;2.10;98.00;;;;;;5110834;28;20450;-67
2022/01/27 11:55:45;;;;;;;1.17;1.13;;;2.20;98.00;;;;;;5110947;28;20559;-67
2022/01/27 11:58:17;;;;;;;1.20;1.20;;;2.30;98.00;;;;;;5094836;28;20462;-68
2022/01/27 12:01:06;;;;;;;2.17;2.00;;;2.30;98.00;;;;;;5110760;28;20459;-65
2022/01/27 12:03:33;;;;;;;1.10;1.00;;;2.30;98.00;;;;;;5110630;28;20470;-65
2022/01/27 12:06:18;;;;;;;1.93;1.83;;;2.20;98.00;;;;;;5110851;28;20493;-66
2022/01/27 12:08:45;;;;;;;1.50;1.40;;;2.40;98.00;;;;;;5110459;28;20540;-66
2022/01/27 12:11:44;;;;;;;1.47;1.20;;;2.40;98.00;;;;;;5110232;28;21070;-67
2022/01/27 12:14:13;;;;;;;1.20;1.17;;;2.40;98.00;;;;;;5093624;28;20884;-66
2022/01/27 12:16:55;;;;;;;1.80;1.67;;;2.50;98.00;;;;;;5110254;28;20509;-68
2022/01/27 12:19:22;;;;;;;1.10;1.10;;;2.50;98.00;;;;;;5110385;28;20527;-67
2022/01/27 12:22:04;;;;;;;2.03;1.87;;;2.50;98.00;;;;;;5110519;28;20498;-67
2022/01/27 12:24:32;;;;;;;1.50;1.40;;;2.50;98.00;;;;;;5110276;28;20454;-68
2022/01/27 12:27:01;;;;;;;1.10;1.00;;;2.60;98.00;;;;;;5110441;28;20493;-68
2022/01/27 12:29:33;;;;;;;2.73;1.93;;;2.60;98.00;;;;;;5112802;28;21005;-66
2022/01/27 12:32:04;;;;;;;2.33;2.13;;;2.60;98.00;;;;;;5113050;28;20504;-66
2022/01/27 12:34:32;;;;;;;1.20;1.20;;;2.60;98.00;;;;;;5112700;28;20512;-67
2022/01/27 12:37:02;;;;;;;1.47;1.37;;;2.70;98.00;;;;;;5112622;28;20993;-66
2022/01/27 12:39:32;;;;;;;1.40;1.30;;;2.70;98.00;;;;;;5112760;28;20577;-67
2022/01/27 12:42:01;;;;;;;1.60;1.30;;;2.70;98.00;;;;;;5112818;28;20567;-66
2022/01/27 12:44:32;;;;;;;1.97;1.30;;;2.70;98.00;;;;;;5112928;28;20482;-66
2022/01/27 12:47:13;;;;;;;2.27;2.07;;;2.70;98.00;;;;;;5112673;28;20572;-67
2022/01/27 12:49:46;;;;;;;1.17;1.13;;;2.80;98.00;;;;;;5112804;28;20851;-66
2022/01/27 12:52:16;;;;;;;2.73;2.10;;;2.90;98.00;;;;;;5112818;28;20495;-66
2022/01/27 12:54:44;;;;;;;1.53;1.43;;;2.90;98.00;;;;;;5112617;28;20553;-68
2022/01/27 12:57:13;;;;;;;1.57;1.47;;;2.90;98.00;;;;;;5112750;28;20454;-66
2022/01/27 12:59:42;;;;;;;1.87;1.77;;;2.90;98.00;;;;;;5112862;28;20481;-67
2022/01/27 13:02:12;;;;;;;1.50;1.30;;;3.00;98.00;;;;;;5112707;28;20508;-68
2022/01/27 13:04:42;;;;;;;1.20;1.20;;;3.10;98.00;;;;;;5112544;28;20461;-66
2022/01/27 13:07:10;;;;;;;1.20;1.10;;;3.10;98.00;;;;;;5112523;28;21187;-67
2022/01/27 13:09:40;;;;;;;1.57;1.40;;;3.10;98.00;;;;;;5112507;28;20459;-67
2022/01/27 13:12:18;;;;;;;2.10;1.60;;;3.10;98.00;;;;;;5112420;28;20464;-66
2022/01/27 13:14:59;;;;;;;2.03;1.73;;;3.10;98.00;;;;;;5112460;28;20522;-66
2022/01/27 13:17:34;;;;;;;1.87;1.77;;;3.00;98.00;;;;;;5112286;28;20489;-67
2022/01/27 13:20:14;;;;;;;1.40;1.30;;;3.10;98.00;;;;;;5111720;28;20482;-67
2022/01/27 13:22:47;;;;;;;1.10;1.10;;;3.00;98.00;;;;;;5112169;28;20454;-68
2022/01/27 13:25:15;;;;;;;1.30;1.20;;;3.10;98.00;;;;;;5111777;28;20460;-66
2022/01/27 13:27:42;;;;;;;1.70;1.27;;;3.20;98.00;;;;;;5112224;28;20450;-67
2022/01/27 13:30:10;;;;;;;1.40;1.40;;;3.20;98.00;;;;;;5112034;28;20461;-69
2022/01/27 13:32:39;;;;;;;1.23;1.17;;;3.20;98.00;;;;;;5112050;28;20527;-68
2022/01/27 13:35:09;;;;;;;1.10;1.00;;;3.20;98.00;;;;;;5111934;28;20469;-66
2022/01/27 13:37:38;;;;;;;1.97;1.87;;;3.30;98.00;;;;;;5111989;28;20450;-67